createdAt,value
2019-02-09T00:00:25.292Z,-0.40
2019-02-09T00:01:25.256Z,-0.43
2019-02-09T00:02:25.268Z,-0.47
2019-02-09T00:03:25.268Z,-0.47
2019-02-09T00:04:25.228Z,-0.54
2019-02-09T00:05:25.230Z,-0.58
2019-02-09T00:06:25.220Z,-0.51
2019-02-09T00:07:25.190Z,-0.55
2019-02-09T00:08:25.182Z,-0.57
2019-02-09T00:09:25.162Z,-0.61
2019-02-09T00:10:25.202Z,-0.52
2019-02-09T00:11:25.175Z,-0.62
2019-02-09T00:12:25.128Z,-0.52
2019-02-09T00:13:25.130Z,-0.60
2019-02-09T00:14:25.130Z,-0.65
2019-02-09T00:15:25.094Z,-0.60
2019-02-09T00:16:25.094Z,-0.62
2019-02-09T00:17:25.070Z,-0.64
2019-02-09T00:18:25.081Z,-0.61
2019-02-09T00:19:25.066Z,-0.62
2019-02-09T00:20:25.044Z,-0.67
2019-02-09T00:21:25.037Z,-0.67
2019-02-09T00:22:25.017Z,-0.72
2019-02-09T00:23:25.004Z,-0.70
2019-02-09T00:24:25.005Z,-0.75
2019-02-09T00:25:25.011Z,-0.73
2019-02-09T00:26:24.981Z,-0.69
2019-02-09T00:27:24.963Z,-0.75
2019-02-09T00:28:24.949Z,-0.67
2019-02-09T00:29:24.946Z,-0.72
2019-02-09T00:30:24.943Z,-0.75
2019-02-09T00:31:24.925Z,-0.73
2019-02-09T00:32:24.916Z,-0.70
2019-02-09T00:33:24.894Z,-0.73
2019-02-09T00:34:24.883Z,-0.72
2019-02-09T00:35:24.874Z,-0.69
2019-02-09T00:36:24.869Z,-0.75
2019-02-09T00:37:24.869Z,-0.69
2019-02-09T00:38:24.841Z,-0.73
2019-02-09T00:39:24.825Z,-0.76
2019-02-09T00:40:24.816Z,-0.79
2019-02-09T00:41:24.813Z,-0.82
2019-02-09T00:42:24.804Z,-0.79
2019-02-09T00:43:24.816Z,-0.92
2019-02-09T00:44:24.779Z,-0.95
2019-02-09T00:45:24.768Z,-0.89
2019-02-09T00:46:24.749Z,-0.92
2019-02-09T00:47:24.744Z,-0.97
2019-02-09T00:48:24.732Z,-0.99
2019-02-09T00:49:24.718Z,-0.95
2019-02-09T00:50:24.708Z,-0.98
2019-02-09T00:51:24.716Z,-0.97
2019-02-09T00:52:24.685Z,-0.95
2019-02-09T00:53:24.680Z,-1.01
2019-02-09T00:54:24.685Z,-0.99
2019-02-09T00:55:24.678Z,-0.97
2019-02-09T00:56:24.646Z,-0.92
2019-02-09T00:57:24.652Z,-0.89
2019-02-09T00:58:24.620Z,-1.01
2019-02-09T00:59:24.625Z,-1.01
2019-02-09T01:00:24.624Z,-0.92
2019-02-09T01:01:24.586Z,-0.98
2019-02-09T01:02:24.593Z,-0.99
2019-02-09T01:03:24.570Z,-0.99
2019-02-09T01:04:24.555Z,-1.02
2019-02-09T01:05:24.591Z,-1.04
2019-02-09T01:06:24.536Z,-0.99
2019-02-09T01:07:24.519Z,-0.98
2019-02-09T01:08:24.513Z,-1.02
2019-02-09T01:09:24.503Z,-0.99
2019-02-09T01:10:24.488Z,-0.98
2019-02-09T01:11:24.480Z,-1.01
2019-02-09T01:12:24.470Z,-1.19
2019-02-09T01:13:24.493Z,-1.15
2019-02-09T01:14:24.477Z,-1.07
2019-02-09T01:15:24.436Z,-1.07
2019-02-09T01:16:24.418Z,-1.19
2019-02-09T01:17:24.412Z,-1.01
2019-02-09T01:18:24.411Z,-1.09
2019-02-09T01:19:24.422Z,-1.09
2019-02-09T01:20:24.408Z,-1.13
2019-02-09T01:21:24.400Z,-1.02
2019-02-09T01:22:24.354Z,-1.05
2019-02-09T01:23:24.357Z,-1.04
2019-02-09T01:24:24.345Z,-1.13
2019-02-09T01:25:24.350Z,-1.09
2019-02-09T01:26:24.313Z,-1.10
2019-02-09T01:27:24.300Z,-1.12
2019-02-09T01:28:24.285Z,-1.15
2019-02-09T01:29:24.314Z,-1.05
2019-02-09T01:30:24.305Z,-1.20
2019-02-09T01:31:24.255Z,-1.13
2019-02-09T01:32:24.244Z,-1.15
2019-02-09T01:33:24.266Z,-1.10
2019-02-09T01:34:24.221Z,-1.17
2019-02-09T01:35:24.221Z,-1.13
2019-02-09T01:36:24.199Z,-1.16
2019-02-09T01:37:24.192Z,-1.15
2019-02-09T01:38:24.176Z,-1.13
2019-02-09T01:39:24.169Z,-1.15
2019-02-09T01:40:24.187Z,-1.12
2019-02-09T01:41:24.143Z,-1.09
2019-02-09T01:42:24.140Z,-1.19
2019-02-09T01:43:24.123Z,-1.19
2019-02-09T01:44:24.107Z,-1.25
2019-02-09T01:45:24.110Z,-1.19
2019-02-09T01:46:24.104Z,-1.20
2019-02-09T01:47:24.075Z,-1.19
2019-02-09T01:48:24.063Z,-1.13
2019-02-09T01:49:24.059Z,-1.20
2019-02-09T01:50:24.074Z,-1.23
2019-02-09T01:51:24.058Z,-1.22
2019-02-09T01:52:24.032Z,-1.20
2019-02-09T01:53:24.015Z,-1.28
2019-02-09T01:54:24.003Z,-1.30
2019-02-09T01:55:23.986Z,-1.27
2019-02-09T01:56:23.994Z,-1.27
2019-02-09T01:57:23.964Z,-1.28
2019-02-09T01:58:23.953Z,-1.23
2019-02-09T01:59:23.968Z,-1.23
2019-02-09T02:00:23.936Z,-1.35
2019-02-09T02:01:23.923Z,-1.25
2019-02-09T02:02:23.945Z,-1.28
2019-02-09T02:03:23.902Z,-1.30
2019-02-09T02:04:23.889Z,-1.34
2019-02-09T02:05:23.910Z,-1.38
2019-02-09T02:06:23.869Z,-1.46
2019-02-09T02:07:23.875Z,-1.45
2019-02-09T02:08:23.842Z,-1.41
2019-02-09T02:09:23.838Z,-1.51
2019-02-09T02:10:23.821Z,-1.48
2019-02-09T02:11:23.842Z,-1.54
2019-02-09T02:12:23.823Z,-1.46
2019-02-09T02:13:23.839Z,-1.46
2019-02-09T02:14:23.781Z,-1.61
2019-02-09T02:15:23.790Z,-1.58
2019-02-09T02:16:23.757Z,-1.61
2019-02-09T02:17:23.754Z,-1.66
2019-02-09T02:18:23.755Z,-1.51
2019-02-09T02:19:23.761Z,-1.67
2019-02-09T02:20:23.719Z,-1.72
2019-02-09T02:21:23.725Z,-1.66
2019-02-09T02:22:23.718Z,-1.72
2019-02-09T02:23:23.708Z,-1.73
2019-02-09T02:24:23.695Z,-1.77
2019-02-09T02:25:23.787Z,-1.76
2019-02-09T02:26:23.684Z,-1.73
2019-02-09T02:27:23.656Z,-1.79
2019-02-09T02:28:23.631Z,-1.79
2019-02-09T02:29:23.643Z,-1.74
2019-02-09T02:30:23.618Z,-1.76
2019-02-09T02:31:23.606Z,-1.72
2019-02-09T02:32:23.608Z,-1.87
2019-02-09T02:33:23.572Z,-1.88
2019-02-09T02:34:23.569Z,-1.84
2019-02-09T02:35:23.561Z,-1.88
2019-02-09T02:36:23.552Z,-1.88
2019-02-09T02:37:23.546Z,-1.87
2019-02-09T02:38:23.527Z,-1.94
2019-02-09T02:39:23.509Z,-1.88
2019-02-09T02:40:23.512Z,-1.95
2019-02-09T02:41:23.485Z,-1.91
2019-02-09T02:42:23.493Z,-1.94
2019-02-09T02:43:23.473Z,-1.90
2019-02-09T02:44:23.469Z,-2.05
2019-02-09T02:45:23.438Z,-1.98
2019-02-09T02:46:23.457Z,-1.95
2019-02-09T02:47:23.424Z,-2.05
2019-02-09T02:48:23.404Z,-2.03
2019-02-09T02:49:23.401Z,-1.97
2019-02-09T02:50:23.391Z,-1.95
2019-02-09T02:51:23.389Z,-2.08
2019-02-09T02:52:23.362Z,-2.13
2019-02-09T02:53:23.351Z,-2.10
2019-02-09T02:54:23.341Z,-2.06
2019-02-09T02:55:23.341Z,-2.15
2019-02-09T02:56:23.354Z,-2.08
2019-02-09T02:57:23.320Z,-2.16
2019-02-09T02:58:23.295Z,-2.16
2019-02-09T02:59:23.285Z,-2.13
2019-02-09T03:00:31.738Z,-2.16
2019-02-09T03:01:24.283Z,-2.08
2019-02-09T03:02:23.271Z,-2.16
2019-02-09T03:03:23.240Z,-2.18
2019-02-09T03:04:23.227Z,-2.20
2019-02-09T03:05:23.227Z,-2.15
2019-02-09T03:06:23.205Z,-2.21
2019-02-09T03:07:23.200Z,-2.21
2019-02-09T03:08:23.208Z,-2.21
2019-02-09T03:09:23.171Z,-2.23
2019-02-09T03:10:23.160Z,-2.26
2019-02-09T03:11:23.149Z,-2.34
2019-02-09T03:12:23.151Z,-2.29
2019-02-09T03:13:23.140Z,-2.29
2019-02-09T03:14:23.131Z,-2.24
2019-02-09T03:15:23.116Z,-2.26
2019-02-09T03:16:23.098Z,-2.26
2019-02-09T03:17:23.085Z,-2.35
2019-02-09T03:18:23.084Z,-2.32
2019-02-09T03:19:23.064Z,-2.35
2019-02-09T03:20:23.081Z,-2.39
2019-02-09T03:21:23.037Z,-2.39
2019-02-09T03:22:23.029Z,-2.42
2019-02-09T03:23:23.027Z,-2.35
2019-02-09T03:24:23.004Z,-2.37
2019-02-09T03:25:22.997Z,-2.48
2019-02-09T03:26:23.018Z,-2.45
2019-02-09T03:27:22.971Z,-2.52
2019-02-09T03:28:22.982Z,-2.50
2019-02-09T03:29:22.957Z,-2.53
2019-02-09T03:30:22.942Z,-2.53
2019-02-09T03:31:22.949Z,-2.56
2019-02-09T03:32:22.933Z,-2.55
2019-02-09T03:33:22.989Z,-2.52
2019-02-09T03:34:22.934Z,-2.53
2019-02-09T03:35:22.894Z,-2.60
2019-02-09T03:36:22.876Z,-2.60
2019-02-09T03:37:22.867Z,-2.67
2019-02-09T03:38:22.858Z,-2.68
2019-02-09T03:39:22.846Z,-2.66
2019-02-09T03:40:22.838Z,-2.63
2019-02-09T03:41:22.825Z,-2.67
2019-02-09T03:42:22.848Z,-2.74
2019-02-09T03:43:22.797Z,-2.73
2019-02-09T03:44:22.801Z,-2.74
2019-02-09T03:45:22.787Z,-2.73
2019-02-09T03:46:22.764Z,-2.73
2019-02-09T03:47:22.757Z,-2.74
2019-02-09T03:48:22.756Z,-2.78
2019-02-09T03:49:22.757Z,-2.82
2019-02-09T03:50:22.732Z,-2.74
2019-02-09T03:51:22.713Z,-2.74
2019-02-09T03:52:22.699Z,-2.79
2019-02-09T03:53:22.790Z,-2.74
2019-02-09T03:54:22.681Z,-2.70
2019-02-09T03:55:22.687Z,-2.73
2019-02-09T03:56:22.686Z,-2.68
2019-02-09T03:57:22.657Z,-2.64
2019-02-09T03:58:22.644Z,-2.78
2019-02-09T03:59:22.630Z,-2.71
2019-02-09T04:00:22.627Z,-2.67
2019-02-09T04:01:22.606Z,-2.70
2019-02-09T04:02:22.591Z,-2.67
2019-02-09T04:03:22.604Z,-2.56
2019-02-09T04:04:22.571Z,-2.64
2019-02-09T04:05:22.560Z,-2.64
2019-02-09T04:06:22.575Z,-2.64
2019-02-09T04:07:22.532Z,-2.61
2019-02-09T04:08:22.522Z,-2.56
2019-02-09T04:09:22.522Z,-2.56
2019-02-09T04:10:22.509Z,-2.56
2019-02-09T04:11:22.502Z,-2.50
2019-02-09T04:12:22.484Z,-2.55
2019-02-09T04:13:22.481Z,-2.50
2019-02-09T04:14:22.471Z,-2.40
2019-02-09T04:15:22.452Z,-2.42
2019-02-09T04:16:22.445Z,-2.43
2019-02-09T04:17:22.456Z,-2.35
2019-02-09T04:18:22.417Z,-2.34
2019-02-09T04:19:22.416Z,-2.35
2019-02-09T04:20:22.390Z,-2.29
2019-02-09T04:21:22.380Z,-2.35
2019-02-09T04:22:22.378Z,-2.24
2019-02-09T04:23:22.417Z,-2.21
2019-02-09T04:24:22.346Z,-2.23
2019-02-09T04:25:22.348Z,-2.32
2019-02-09T04:26:22.326Z,-2.24
2019-02-09T04:27:22.313Z,-2.24
2019-02-09T04:28:22.351Z,-2.20
2019-02-09T04:29:22.293Z,-2.12
2019-02-09T04:30:22.282Z,-2.23
2019-02-09T04:31:22.272Z,-2.20
2019-02-09T04:32:22.261Z,-2.16
2019-02-09T04:33:22.246Z,-2.20
2019-02-09T04:34:22.257Z,-2.20
2019-02-09T04:35:22.231Z,-2.18
2019-02-09T04:36:22.215Z,-2.12
2019-02-09T04:37:22.206Z,-2.12
2019-02-09T04:38:22.205Z,-2.15
2019-02-09T04:39:22.204Z,-2.16
2019-02-09T04:40:22.176Z,-2.12
2019-02-09T04:41:22.177Z,-2.20
2019-02-09T04:42:22.149Z,-2.10
2019-02-09T04:43:22.147Z,-2.16
2019-02-09T04:44:22.131Z,-2.09
2019-02-09T04:45:22.128Z,-2.12
2019-02-09T04:46:22.102Z,-2.00
2019-02-09T04:47:22.124Z,-1.95
2019-02-09T04:48:22.926Z,-2.03
2019-02-09T04:49:22.073Z,-1.95
2019-02-09T04:50:22.075Z,-1.91
2019-02-09T04:51:22.053Z,-1.97
2019-02-09T04:52:22.039Z,-1.85
2019-02-09T04:53:22.029Z,-1.87
2019-02-09T04:54:22.048Z,-1.85
2019-02-09T04:55:22.013Z,-1.82
2019-02-09T04:56:21.998Z,-1.90
2019-02-09T04:57:21.986Z,-1.77
2019-02-09T04:58:21.979Z,-1.70
2019-02-09T04:59:21.965Z,-1.69
2019-02-09T05:00:21.952Z,-1.67
2019-02-09T05:01:21.990Z,-1.59
2019-02-09T05:02:21.956Z,-1.66
2019-02-09T05:03:21.918Z,-1.62
2019-02-09T05:04:21.918Z,-1.55
2019-02-09T05:05:21.906Z,-1.62
2019-02-09T05:06:21.894Z,-1.56
2019-02-09T05:07:21.893Z,-1.59
2019-02-09T05:08:21.876Z,-1.52
2019-02-09T05:09:21.856Z,-1.49
2019-02-09T05:10:21.908Z,-1.56
2019-02-09T05:11:21.853Z,-1.55
2019-02-09T05:12:21.849Z,-1.45
2019-02-09T05:13:21.829Z,-1.51
2019-02-09T05:14:21.829Z,-1.49
2019-02-09T05:15:21.805Z,-1.48
2019-02-09T05:16:21.773Z,-1.43
2019-02-09T05:17:21.774Z,-1.37
2019-02-09T05:18:21.768Z,-1.48
2019-02-09T05:19:21.744Z,-1.43
2019-02-09T05:20:21.740Z,-1.31
2019-02-09T05:21:21.731Z,-1.40
2019-02-09T05:22:21.709Z,-1.40
2019-02-09T05:23:21.720Z,-1.27
2019-02-09T05:24:21.691Z,-1.16
2019-02-09T05:25:21.691Z,-1.13
2019-02-09T05:26:21.692Z,-1.15
2019-02-09T05:27:21.656Z,-1.05
2019-02-09T05:28:21.645Z,-1.16
2019-02-09T05:29:21.636Z,-0.98
2019-02-09T05:30:21.634Z,-0.99
2019-02-09T05:31:23.432Z,-0.98
2019-02-09T05:32:21.617Z,-0.92
2019-02-09T05:33:21.587Z,-0.92
2019-02-09T05:34:21.603Z,-0.82
2019-02-09T05:35:21.570Z,-0.89
2019-02-09T05:36:21.559Z,-0.83
2019-02-09T05:37:21.548Z,-0.79
2019-02-09T05:38:21.549Z,-0.80
2019-02-09T05:39:21.532Z,-0.72
2019-02-09T05:40:21.546Z,-0.83
2019-02-09T05:41:21.505Z,-0.79
2019-02-09T05:42:21.490Z,-0.76
2019-02-09T05:43:21.485Z,-0.75
2019-02-09T05:44:21.478Z,-0.72
2019-02-09T05:45:21.484Z,-0.75
2019-02-09T05:46:21.457Z,-0.70
2019-02-09T05:47:21.437Z,-0.65
2019-02-09T05:48:21.433Z,-0.67
2019-02-09T05:49:21.419Z,-0.67
2019-02-09T05:50:21.404Z,-0.62
2019-02-09T05:51:21.396Z,-0.49
2019-02-09T05:52:21.395Z,-0.58
2019-02-09T05:53:21.441Z,-0.58
2019-02-09T05:54:21.398Z,-0.54
2019-02-09T05:55:21.353Z,-0.61
2019-02-09T05:56:21.341Z,-0.55
2019-02-09T05:57:21.331Z,-0.47
2019-02-09T05:58:21.324Z,-0.60
2019-02-09T05:59:21.313Z,-0.40
2019-02-09T06:00:21.291Z,-0.39
2019-02-09T06:01:21.297Z,-0.42
2019-02-09T06:02:21.280Z,-0.36
2019-02-09T06:03:21.257Z,-0.43
2019-02-09T06:04:21.253Z,-0.31
2019-02-09T06:05:21.260Z,-0.36
2019-02-09T06:06:21.222Z,-0.28
2019-02-09T06:07:21.223Z,-0.33
2019-02-09T06:08:21.205Z,-0.26
2019-02-09T06:09:21.250Z,-0.39
2019-02-09T06:10:21.193Z,-0.25
2019-02-09T06:11:21.192Z,-0.15
2019-02-09T06:12:21.196Z,-0.14
2019-02-09T06:13:21.152Z,-0.04
2019-02-09T06:14:21.142Z,0.13
2019-02-09T06:15:21.128Z,0.28
2019-02-09T06:16:21.120Z,0.76
2019-02-09T06:17:21.111Z,1.11
2019-02-09T06:18:21.111Z,1.36
2019-02-09T06:19:21.101Z,1.37
2019-02-09T06:20:21.076Z,1.63
2019-02-09T06:21:21.067Z,1.73
2019-02-09T06:22:21.058Z,1.83
2019-02-09T06:23:21.062Z,1.84
2019-02-09T06:24:21.028Z,2.05
2019-02-09T06:25:21.047Z,2.05
2019-02-09T06:26:21.003Z,2.14
2019-02-09T06:27:21.012Z,2.18
2019-02-09T06:28:20.990Z,2.28
2019-02-09T06:29:20.979Z,2.27
2019-02-09T06:30:20.960Z,2.36
2019-02-09T06:31:20.992Z,2.35
2019-02-09T06:32:20.959Z,2.39
2019-02-09T06:33:20.984Z,2.41
2019-02-09T06:34:20.945Z,2.45
2019-02-09T06:35:20.904Z,2.59
2019-02-09T06:36:20.895Z,2.54
2019-02-09T06:37:20.883Z,2.52
2019-02-09T06:38:20.877Z,2.63
2019-02-09T06:39:20.862Z,2.60
2019-02-09T06:40:20.852Z,2.59
2019-02-09T06:41:20.856Z,2.57
2019-02-09T06:42:20.826Z,2.69
2019-02-09T06:43:20.851Z,2.67
2019-02-09T06:44:20.806Z,2.67
2019-02-09T06:45:20.806Z,2.72
2019-02-09T06:46:20.788Z,2.74
2019-02-09T06:47:20.776Z,2.85
2019-02-09T06:48:20.792Z,2.82
2019-02-09T06:49:20.752Z,2.89
2019-02-09T06:50:20.739Z,2.89
2019-02-09T06:51:20.725Z,2.93
2019-02-09T06:52:20.721Z,2.93
2019-02-09T06:53:20.705Z,2.99
2019-02-09T06:54:20.730Z,2.97
2019-02-09T06:55:20.683Z,2.99
2019-02-09T06:56:20.672Z,3.03
2019-02-09T06:57:20.659Z,3.06
2019-02-09T06:58:20.645Z,3.14
2019-02-09T06:59:20.644Z,3.06
2019-02-09T07:00:20.962Z,3.10
2019-02-09T07:01:20.616Z,3.10
2019-02-09T07:02:20.605Z,3.21
2019-02-09T07:03:20.593Z,3.20
2019-02-09T07:04:20.609Z,3.24
2019-02-09T07:05:20.577Z,3.39
2019-02-09T07:06:20.575Z,3.33
2019-02-09T07:07:20.566Z,3.48
2019-02-09T07:08:20.537Z,3.47
2019-02-09T07:09:20.524Z,3.61
2019-02-09T07:10:20.523Z,3.61
2019-02-09T07:11:20.508Z,3.70
2019-02-09T07:12:20.506Z,3.75
2019-02-09T07:13:20.495Z,3.94
2019-02-09T07:14:20.479Z,3.86
2019-02-09T07:15:20.456Z,3.87
2019-02-09T07:16:20.453Z,3.98
2019-02-09T07:17:20.436Z,3.90
2019-02-09T07:18:20.463Z,3.98
2019-02-09T07:19:20.432Z,3.97
2019-02-09T07:20:20.404Z,3.94
2019-02-09T07:21:20.391Z,3.97
2019-02-09T07:22:20.382Z,3.98
2019-02-09T07:23:20.373Z,4.08
2019-02-09T07:24:20.359Z,4.06
2019-02-09T07:25:20.357Z,4.05
2019-02-09T07:26:20.342Z,4.06
2019-02-09T07:27:20.325Z,4.06
2019-02-09T07:28:20.356Z,4.11
2019-02-09T07:29:20.305Z,4.09
2019-02-09T07:30:20.326Z,4.20
2019-02-09T07:31:20.283Z,4.24
2019-02-09T07:32:20.298Z,4.15
2019-02-09T07:33:20.270Z,4.34
2019-02-09T07:34:20.291Z,4.33
2019-02-09T07:35:20.234Z,4.41
2019-02-09T07:36:20.244Z,4.33
2019-02-09T07:37:20.225Z,4.40
2019-02-09T07:38:20.210Z,4.50
2019-02-09T07:39:20.188Z,4.45
2019-02-09T07:40:20.185Z,4.37
2019-02-09T07:41:20.203Z,4.42
2019-02-09T07:42:20.160Z,4.48
2019-02-09T07:43:20.155Z,4.45
2019-02-09T07:44:20.137Z,4.58
2019-02-09T07:45:20.122Z,4.58
2019-02-09T07:46:20.130Z,4.58
2019-02-09T07:47:20.104Z,4.62
2019-02-09T07:48:20.101Z,4.62
2019-02-09T07:49:20.081Z,4.66
2019-02-09T07:50:20.069Z,4.69
2019-02-09T07:51:20.055Z,4.67
2019-02-09T07:52:20.062Z,4.72
2019-02-09T07:53:20.046Z,4.78
2019-02-09T07:54:20.030Z,4.77
2019-02-09T07:55:20.014Z,4.88
2019-02-09T07:56:20.026Z,4.91
2019-02-09T07:57:20.038Z,4.91
2019-02-09T07:58:19.995Z,4.84
2019-02-09T07:59:19.980Z,4.91
2019-02-09T08:00:19.969Z,4.99
2019-02-09T08:01:19.968Z,4.97
2019-02-09T08:02:19.935Z,4.96
2019-02-09T08:03:19.938Z,5.03
2019-02-09T08:04:19.916Z,5.02
2019-02-09T08:05:19.907Z,5.03
2019-02-09T08:06:19.927Z,5.09
2019-02-09T08:07:19.920Z,5.13
2019-02-09T08:08:19.873Z,5.17
2019-02-09T08:09:19.889Z,5.15
2019-02-09T08:10:19.853Z,5.18
2019-02-09T08:11:19.837Z,5.09
2019-02-09T08:12:19.843Z,5.03
2019-02-09T08:13:19.812Z,5.03
2019-02-09T08:14:19.806Z,5.06
2019-02-09T08:15:19.820Z,4.99
2019-02-09T08:16:19.828Z,4.96
2019-02-09T08:17:19.772Z,5.04
2019-02-09T08:18:19.776Z,5.06
2019-02-09T08:19:19.757Z,5.09
2019-02-09T08:20:19.737Z,5.13
2019-02-09T08:21:19.731Z,5.15
2019-02-09T08:22:19.722Z,5.31
2019-02-09T08:23:19.701Z,5.25
2019-02-09T08:24:19.694Z,5.38
2019-02-09T08:25:19.704Z,5.36
2019-02-09T08:26:19.679Z,5.51
2019-02-09T08:27:23.675Z,5.57
2019-02-09T08:28:19.666Z,5.58
2019-02-09T08:29:19.674Z,5.61
2019-02-09T08:30:19.638Z,5.65
2019-02-09T08:31:19.626Z,5.75
2019-02-09T08:32:19.605Z,5.71
2019-02-09T08:33:19.607Z,5.75
2019-02-09T08:34:19.606Z,5.81
2019-02-09T08:35:19.583Z,5.82
2019-02-09T08:36:19.564Z,5.90
2019-02-09T08:37:19.586Z,5.89
2019-02-09T08:38:19.548Z,5.90
2019-02-09T08:39:19.529Z,5.89
2019-02-09T08:40:19.525Z,5.94
2019-02-09T08:41:19.500Z,5.94
2019-02-09T08:42:19.546Z,5.96
2019-02-09T08:43:19.499Z,5.94
2019-02-09T08:44:19.477Z,5.94
2019-02-09T08:45:19.477Z,5.89
2019-02-09T08:46:19.483Z,5.99
2019-02-09T08:47:19.459Z,6.00
2019-02-09T08:48:19.445Z,6.11
2019-02-09T08:49:19.442Z,6.11
2019-02-09T08:50:19.402Z,6.09
2019-02-09T08:51:19.430Z,6.04
2019-02-09T08:52:19.415Z,6.17
2019-02-09T08:53:19.375Z,6.22
2019-02-09T08:54:19.365Z,6.18
2019-02-09T08:55:19.351Z,6.28
2019-02-09T08:56:19.346Z,6.30
2019-02-09T08:57:19.378Z,6.41
2019-02-09T08:58:19.319Z,6.46
2019-02-09T08:59:19.302Z,6.44
2019-02-09T09:00:19.294Z,6.40
2019-02-09T09:01:19.282Z,6.34
2019-02-09T09:02:20.637Z,6.52
2019-02-09T09:03:19.284Z,6.51
2019-02-09T09:04:19.279Z,6.61
2019-02-09T09:05:19.253Z,6.58
2019-02-09T09:06:19.229Z,6.59
2019-02-09T09:07:19.232Z,6.55
2019-02-09T09:08:19.203Z,6.61
2019-02-09T09:09:19.193Z,6.55
2019-02-09T09:10:19.199Z,6.56
2019-02-09T09:11:19.175Z,6.59
2019-02-09T09:12:19.178Z,6.52
2019-02-09T09:13:19.151Z,6.54
2019-02-09T09:14:19.146Z,6.56
2019-02-09T09:15:19.125Z,6.61
2019-02-09T09:16:19.130Z,6.70
2019-02-09T09:17:19.135Z,6.67
2019-02-09T09:18:19.100Z,6.79
2019-02-09T09:19:19.102Z,6.91
2019-02-09T09:20:19.083Z,6.95
2019-02-09T09:21:19.082Z,7.20
2019-02-09T09:22:19.053Z,7.15
2019-02-09T09:23:19.053Z,7.12
2019-02-09T09:24:19.027Z,7.12
2019-02-09T09:25:19.056Z,7.07
2019-02-09T09:26:19.006Z,6.99
2019-02-09T09:27:19.048Z,6.99
2019-02-09T09:28:18.995Z,6.94
2019-02-09T09:29:18.993Z,6.99
2019-02-09T09:30:19.024Z,6.98
2019-02-09T09:31:18.948Z,6.98
2019-02-09T09:32:18.936Z,6.91
2019-02-09T09:33:18.940Z,7.06
2019-02-09T09:34:18.947Z,7.09
2019-02-09T09:35:18.930Z,6.99
2019-02-09T09:36:18.895Z,7.17
2019-02-09T09:37:18.891Z,7.17
2019-02-09T09:38:18.893Z,7.13
2019-02-09T09:39:18.869Z,7.31
2019-02-09T09:40:18.856Z,7.32
2019-02-09T09:41:18.838Z,7.48
2019-02-09T09:42:18.831Z,7.68
2019-02-09T09:43:18.826Z,7.58
2019-02-09T09:44:18.863Z,7.57
2019-02-09T09:45:18.795Z,7.52
2019-02-09T09:46:18.787Z,7.60
2019-02-09T09:47:18.769Z,7.55
2019-02-09T09:48:18.780Z,7.68
2019-02-09T09:49:18.769Z,7.80
2019-02-09T09:50:18.736Z,7.86
2019-02-09T09:51:18.733Z,7.90
2019-02-09T09:52:18.725Z,7.98
2019-02-09T09:53:18.732Z,8.01
2019-02-09T09:54:18.706Z,8.10
2019-02-09T09:55:18.680Z,8.07
2019-02-09T09:56:18.690Z,8.16
2019-02-09T09:57:18.657Z,8.20
2019-02-09T09:58:18.652Z,8.15
2019-02-09T09:59:18.661Z,8.10
2019-02-09T10:00:18.623Z,8.00
2019-02-09T10:01:18.629Z,7.95
2019-02-09T10:02:18.629Z,7.86
2019-02-09T10:03:18.607Z,7.72
2019-02-09T10:04:18.612Z,7.67
2019-02-09T10:05:18.580Z,7.60
2019-02-09T10:06:18.571Z,7.57
2019-02-09T10:07:18.578Z,7.57
2019-02-09T10:08:18.548Z,7.53
2019-02-09T10:09:18.555Z,7.43
2019-02-09T10:10:18.525Z,7.43
2019-02-09T10:11:18.507Z,7.43
2019-02-09T10:12:18.500Z,7.40
2019-02-09T10:13:18.524Z,7.34
2019-02-09T10:14:18.475Z,7.32
2019-02-09T10:15:18.456Z,7.25
2019-02-09T10:16:18.456Z,7.39
2019-02-09T10:17:18.456Z,7.27
2019-02-09T10:18:18.468Z,7.30
2019-02-09T10:19:18.423Z,7.13
2019-02-09T10:20:18.414Z,7.16
2019-02-09T10:21:18.393Z,7.16
2019-02-09T10:22:18.410Z,7.21
2019-02-09T10:23:18.369Z,7.16
2019-02-09T10:24:18.394Z,7.24
2019-02-09T10:25:18.350Z,7.31
2019-02-09T10:26:18.358Z,7.30
2019-02-09T10:27:18.344Z,7.37
2019-02-09T10:28:18.335Z,7.43
2019-02-09T10:29:18.300Z,7.50
2019-02-09T10:30:18.295Z,7.48
2019-02-09T10:31:18.292Z,7.57
2019-02-09T10:32:18.303Z,7.68
2019-02-09T10:33:18.260Z,7.68
2019-02-09T10:34:18.262Z,7.68
2019-02-09T10:35:18.271Z,7.68
2019-02-09T10:36:18.226Z,7.87
2019-02-09T10:37:18.214Z,7.82
2019-02-09T10:38:18.202Z,7.86
2019-02-09T10:39:18.225Z,7.86
2019-02-09T10:40:18.210Z,7.95
2019-02-09T10:41:18.192Z,7.93
2019-02-09T10:42:18.191Z,8.01
2019-02-09T10:43:18.156Z,8.05
2019-02-09T10:44:18.176Z,8.11
2019-02-09T10:45:18.149Z,8.19
2019-02-09T10:46:18.143Z,8.25
2019-02-09T10:47:18.121Z,8.33
2019-02-09T10:48:18.098Z,8.30
2019-02-09T10:49:18.085Z,8.36
2019-02-09T10:50:18.069Z,8.50
2019-02-09T10:51:18.070Z,8.38
2019-02-09T10:52:19.158Z,8.52
2019-02-09T10:53:18.028Z,8.58
2019-02-09T10:54:18.035Z,8.53
2019-02-09T10:55:18.043Z,8.65
2019-02-09T10:56:18.025Z,8.66
2019-02-09T10:57:18.016Z,8.63
2019-02-09T10:58:17.981Z,8.80
2019-02-09T10:59:17.991Z,8.79
2019-02-09T11:00:17.990Z,8.86
2019-02-09T11:01:17.940Z,8.83
2019-02-09T11:02:17.930Z,8.92
2019-02-09T11:03:17.924Z,8.81
2019-02-09T11:04:17.915Z,8.84
2019-02-09T11:05:17.908Z,8.80
2019-02-09T11:06:17.892Z,8.84
2019-02-09T11:07:17.875Z,8.87
2019-02-09T11:08:17.879Z,8.81
2019-02-09T11:09:17.871Z,8.81
2019-02-09T11:10:17.869Z,8.66
2019-02-09T11:11:17.846Z,8.77
2019-02-09T11:12:17.816Z,8.77
2019-02-09T11:13:17.828Z,8.73
2019-02-09T11:14:17.798Z,8.84
2019-02-09T11:15:17.813Z,8.80
2019-02-09T11:16:17.779Z,8.84
2019-02-09T11:17:17.764Z,8.83
2019-02-09T11:18:17.754Z,8.80
2019-02-09T11:19:17.746Z,8.79
2019-02-09T11:20:17.727Z,8.83
2019-02-09T11:21:17.732Z,8.83
2019-02-09T11:22:17.710Z,8.95
2019-02-09T11:23:17.706Z,8.79
2019-02-09T11:24:17.687Z,8.91
2019-02-09T11:25:17.689Z,8.89
2019-02-09T11:26:17.700Z,8.94
2019-02-09T11:27:17.677Z,8.94
2019-02-09T11:28:17.650Z,8.96
2019-02-09T11:29:17.630Z,8.94
2019-02-09T11:30:17.625Z,8.84
2019-02-09T11:31:17.610Z,8.81
2019-02-09T11:32:17.624Z,8.80
2019-02-09T11:33:17.613Z,8.71
2019-02-09T11:34:17.579Z,8.70
2019-02-09T11:35:17.589Z,8.77
2019-02-09T11:36:17.577Z,8.68
2019-02-09T11:37:17.541Z,8.62
2019-02-09T11:38:17.528Z,8.55
2019-02-09T11:39:17.530Z,8.52
2019-02-09T11:40:17.530Z,8.61
2019-02-09T11:41:17.505Z,8.53
2019-02-09T11:42:17.760Z,8.55
2019-02-09T11:43:17.469Z,8.66
2019-02-09T11:44:17.466Z,8.62
2019-02-09T11:45:17.492Z,8.59
2019-02-09T11:46:17.458Z,8.61
2019-02-09T11:47:17.430Z,8.66
2019-02-09T11:48:17.448Z,8.62
2019-02-09T11:49:17.403Z,8.70
2019-02-09T11:50:17.432Z,8.76
2019-02-09T11:51:17.403Z,8.74
2019-02-09T11:52:17.379Z,8.71
2019-02-09T11:53:17.361Z,8.71
2019-02-09T11:54:17.383Z,8.73
2019-02-09T11:55:17.369Z,8.83
2019-02-09T11:56:17.328Z,8.83
2019-02-09T11:57:17.331Z,8.83
2019-02-09T11:58:17.298Z,8.84
2019-02-09T11:59:17.288Z,8.92
2019-02-09T12:00:17.290Z,8.86
2019-02-09T12:01:17.274Z,8.92
2019-02-09T12:02:17.253Z,8.91
2019-02-09T12:03:17.261Z,8.94
2019-02-09T12:04:17.257Z,8.94
2019-02-09T12:05:17.222Z,9.08
2019-02-09T12:06:17.209Z,9.05
2019-02-09T12:07:17.200Z,9.13
2019-02-09T12:08:17.182Z,9.08
2019-02-09T12:09:17.203Z,9.15
2019-02-09T12:10:17.247Z,9.18
2019-02-09T12:11:17.171Z,9.18
2019-02-09T12:12:17.154Z,9.20
2019-02-09T12:13:17.145Z,9.23
2019-02-09T12:14:17.130Z,9.21
2019-02-09T12:15:17.105Z,9.28
2019-02-09T12:16:17.545Z,9.38
2019-02-09T12:17:17.095Z,9.43
2019-02-09T12:18:17.075Z,9.53
2019-02-09T12:19:17.058Z,9.61
2019-02-09T12:20:17.047Z,9.69
2019-02-09T12:21:17.067Z,9.72
2019-02-09T12:22:17.056Z,9.83
2019-02-09T12:23:17.018Z,9.78
2019-02-09T12:24:17.018Z,9.81
2019-02-09T12:25:17.041Z,9.78
2019-02-09T12:26:16.981Z,9.78
2019-02-09T12:27:16.974Z,9.75
2019-02-09T12:28:16.970Z,9.75
2019-02-09T12:29:16.947Z,9.75
2019-02-09T12:30:16.931Z,9.65
2019-02-09T12:31:16.949Z,9.72
2019-02-09T12:32:16.921Z,9.74
2019-02-09T12:33:22.738Z,9.78
2019-02-09T12:34:17.882Z,9.75
2019-02-09T12:35:16.892Z,9.74
2019-02-09T12:36:16.877Z,9.75
2019-02-09T12:37:16.867Z,9.71
2019-02-09T12:38:16.876Z,9.71
2019-02-09T12:39:16.846Z,9.61
2019-02-09T12:40:16.829Z,9.65
2019-02-09T12:41:16.806Z,9.58
2019-02-09T12:42:16.826Z,9.38
2019-02-09T12:43:16.833Z,9.39
2019-02-09T12:44:16.781Z,9.36
2019-02-09T12:45:16.778Z,9.20
2019-02-09T12:46:16.757Z,9.26
2019-02-09T12:47:16.753Z,9.15
2019-02-09T12:48:16.772Z,9.10
2019-02-09T12:49:16.737Z,9.21
2019-02-09T12:50:16.706Z,9.17
2019-02-09T12:51:16.711Z,9.17
2019-02-09T12:52:16.712Z,9.17
2019-02-09T12:53:16.681Z,9.17
2019-02-09T12:54:16.655Z,9.20
2019-02-09T12:55:16.702Z,9.10
2019-02-09T12:56:16.668Z,9.11
2019-02-09T12:57:16.662Z,9.08
2019-02-09T12:58:16.612Z,9.10
2019-02-09T12:59:16.622Z,9.04
2019-02-09T13:00:16.589Z,9.01
2019-02-09T13:01:16.633Z,9.08
2019-02-09T13:02:16.568Z,9.02
2019-02-09T13:03:16.557Z,8.92
2019-02-09T13:04:16.590Z,9.08
2019-02-09T13:05:16.565Z,9.11
2019-02-09T13:06:16.555Z,9.14